Time;durP1;ratioP1;P1;durP2;ratioP2;P2;SDS_P1;SDS_P2;PMS_P1;PMS_P2;Temp;Humidity;BMP_temperature;BMP_pressure;BME280_temperature;BME280_humidity;BME280_pressure;Samples;Min_cycle;Max_cycle;Signal;HPM_P1;HPM_P2
2023/05/04 00:01:09;;;;;;;6.10;1.80;;;;;;;7.26;100.00;101374.20;105863;1251;75361;-48
2023/05/04 00:03:37;;;;;;;6.40;1.90;;;;;;;7.19;100.00;101393.18;105873;1256;62667;-49
2023/05/04 00:06:04;;;;;;;2.90;1.70;;;;;;;7.15;100.00;101420.09;105906;1257;61761;-53
2023/05/04 00:08:31;;;;;;;4.60;1.90;;;;;;;7.11;100.00;101434.81;105875;1257;75232;-53
2023/05/04 00:10:58;;;;;;;3.10;1.80;;;;;;;7.06;100.00;101457.40;105854;1257;66649;-50
2023/05/04 00:13:25;;;;;;;6.80;1.60;;;;;;;7.00;100.00;101467.81;105851;1251;74070;-48
2023/05/04 00:15:52;;;;;;;3.00;1.90;;;;;;;6.96;100.00;101479.42;105967;1256;62678;-49
2023/05/04 00:18:20;;;;;;;6.80;1.60;;;;;;;6.90;100.00;101485.69;105943;1250;62768;-50
2023/05/04 00:20:47;;;;;;;3.10;1.70;;;;;;;6.87;100.00;101495.27;105794;1251;74463;-47
2023/05/04 00:23:14;;;;;;;5.00;1.80;;;;;;;6.87;100.00;101524.61;105849;1251;66820;-50
2023/05/04 00:25:41;;;;;;;10.60;2.20;;;;;;;6.87;100.00;101560.13;105845;1251;75379;-49
2023/05/04 00:28:08;;;;;;;8.90;1.80;;;;;;;6.93;100.00;101591.97;105848;1253;64034;-50
2023/05/04 00:30:35;;;;;;;8.00;2.00;;;;;;;7.02;100.00;101603.08;105869;1251;61991;-49
2023/05/04 00:33:02;;;;;;;2.50;1.60;;;;;;;7.14;100.00;101596.39;105720;1254;74454;-49
2023/05/04 00:35:30;;;;;;;8.60;2.50;;;;;;;7.18;100.00;101585.80;105897;1252;66023;-49
2023/05/04 00:37:57;;;;;;;5.80;1.80;;;;;;;7.14;100.00;101569.95;105663;1256;74504;-49
2023/05/04 00:40:24;;;;;;;3.60;1.50;;;;;;;7.08;100.00;101551.34;105822;1253;63742;-49
2023/05/04 00:42:51;;;;;;;1.70;1.40;;;;;;;7.03;100.00;101543.36;105672;1257;62400;-50
2023/05/04 00:45:19;;;;;;;2.80;1.70;;;;;;;7.02;100.00;101552.62;105666;1258;75483;-49
2023/05/04 00:47:47;;;;;;;10.10;2.30;;;;;;;7.07;100.00;101552.33;105832;1257;67107;-49
2023/05/04 00:50:14;;;;;;;5.70;2.10;;;;;;;7.15;100.00;101547.98;105711;1255;74490;-49
2023/05/04 00:52:42;;;;;;;4.80;1.90;;;;;;;7.15;100.00;101541.30;105824;1254;63260;-48
2023/05/04 00:55:10;;;;;;;5.30;2.10;;;;;;;7.10;100.00;101544.83;105720;1252;61111;-49
2023/05/04 00:57:37;;;;;;;10.30;2.20;;;;;;;7.04;100.00;101550.41;105722;1256;75353;-49
2023/05/04 01:00:05;;;;;;;3.90;2.00;;;;;;;7.08;100.00;101547.38;105739;1257;67456;-49
2023/05/04 01:02:33;;;;;;;5.00;1.80;;;;;;;7.16;100.00;101541.30;105687;1257;74335;-49
2023/05/04 01:05:01;;;;;;;7.20;1.90;;;;;;;7.27;100.00;101514.14;105878;1257;62840;-49
2023/05/04 01:07:52;;;;;;;4.20;2.00;;;;;;;7.36;100.00;101486.25;105732;1258;61803;-48
2023/05/04 01:10:26;;;;;;;3.60;1.50;;;;;;;7.43;100.00;101454.73;105767;1257;75443;-49
2023/05/04 01:13:03;;;;;;;6.50;2.00;;;;;;;7.52;100.00;101424.92;105684;1254;66050;-48
2023/05/04 01:15:31;;;;;;;6.90;2.00;;;;;;;7.59;100.00;101395.11;105692;1256;74574;-49
2023/05/04 01:17:58;;;;;;;9.40;1.80;;;;;;;7.70;100.00;101363.93;105731;1253;62196;-49
2023/05/04 01:20:25;;;;;;;10.50;2.50;;;;;;;7.77;100.00;101337.02;105870;1257;61497;-49
2023/05/04 01:22:52;;;;;;;4.00;2.30;;;;;;;7.81;100.00;101318.82;105681;1257;75504;-49
2023/05/04 01:25:19;;;;;;;7.80;2.40;;;;;;;7.81;100.00;101307.14;105686;1253;65051;-49
2023/05/04 01:28:01;;;;;;;5.50;1.90;;;;;;;7.77;100.00;101295.09;105649;1258;75166;-48
2023/05/04 01:30:34;;;;;;;7.00;2.00;;;;;;;7.73;100.00;101290.60;105835;1257;62184;-49
2023/05/04 01:33:02;;;;;;;3.90;2.00;;;;;;;7.67;100.00;101283.84;105670;1252;62174;-49
2023/05/04 01:35:29;;;;;;;4.90;2.30;;;;;;;7.62;100.00;101286.90;105634;1252;74794;-49
2023/05/04 01:37:56;;;;;;;5.40;2.00;;;;;;;7.57;100.00;101288.94;105673;1254;67472;-49
2023/05/04 01:40:23;;;;;;;5.40;2.00;;;;;;;7.57;100.00;101289.96;105672;1253;74361;-50
2023/05/04 01:42:50;;;;;;;6.30;2.70;;;;;;;7.58;100.00;101285.69;105889;1254;60685;-49
2023/05/04 01:45:17;;;;;;;5.10;2.30;;;;;;;7.57;100.00;101287.38;105875;1257;62808;-49
2023/05/04 01:47:45;;;;;;;12.80;2.30;;;;;;;7.57;100.00;101284.29;105925;1252;74321;-49
2023/05/04 01:50:12;;;;;;;5.30;2.10;;;;;;;7.61;100.00;101290.34;105694;1258;66214;-49
2023/05/04 01:52:39;;;;;;;3.20;2.20;;;;;;;7.67;100.00;101289.52;105804;1253;73502;-49
2023/05/04 01:55:07;;;;;;;9.30;2.50;;;;;;;7.65;100.00;101286.23;105667;1254;63170;-50
2023/05/04 01:57:34;;;;;;;3.00;1.80;;;;;;;7.60;100.00;101285.69;105720;1257;61763;-51
2023/05/04 02:00:02;;;;;;;6.90;1.90;;;;;;;7.52;100.00;101277.90;105633;1257;73688;-50
2023/05/04 02:02:41;;;;;;;6.00;2.10;;;;;;;7.44;100.00;101285.05;105678;1253;67013;-48
2023/05/04 02:05:09;;;;;;;7.90;2.30;;;;;;;7.39;100.00;101294.45;105736;1253;73033;-49
2023/05/04 02:07:37;;;;;;;8.00;1.90;;;;;;;7.37;100.00;101305.95;105740;1253;61009;-50
2023/05/04 02:10:07;;;;;;;4.70;2.20;;;;;;;7.37;100.00;101308.35;105711;1257;61889;-48
2023/05/04 02:12:34;;;;;;;5.90;2.40;;;;;;;7.36;100.00;101303.89;105900;1251;74446;-48
2023/05/04 02:15:02;;;;;;;5.90;2.70;;;;;;;7.39;100.00;101297.90;105757;1252;67241;-49
2023/05/04 02:17:30;;;;;;;6.90;2.20;;;;;;;7.45;100.00;101297.44;105741;1257;75798;-48
2023/05/04 02:19:57;;;;;;;3.80;2.10;;;;;;;7.51;100.00;101292.15;105879;1254;63862;-49
2023/05/04 02:22:24;;;;;;;6.20;1.90;;;;;;;7.55;100.00;101290.64;105904;1251;62764;-49
2023/05/04 02:24:51;;;;;;;8.10;2.80;;;;;;;7.59;100.00;101288.95;105679;1259;74794;-49
2023/05/04 02:27:19;;;;;;;2.50;2.20;;;;;;;7.60;100.00;101291.71;105708;1253;66487;-49
2023/05/04 02:29:47;;;;;;;4.70;2.40;;;;;;;7.61;100.00;101288.63;105846;1257;74358;-49
2023/05/04 02:32:14;;;;;;;2.80;1.80;;;;;;;7.60;100.00;101285.02;105640;1253;64363;-48
2023/05/04 02:34:42;;;;;;;4.10;2.30;;;;;;;7.61;100.00;101282.95;105713;1258;62738;-48
2023/05/04 02:37:09;;;;;;;13.10;2.70;;;;;;;7.61;100.00;101276.42;105836;1253;74498;-49
2023/05/04 02:39:36;;;;;;;6.40;2.60;;;;;;;7.57;100.00;101276.21;105674;1252;67017;-49
2023/05/04 02:42:04;;;;;;;5.40;2.60;;;;;;;7.48;100.00;101278.56;105653;1255;75403;-49
2023/05/04 02:44:31;;;;;;;4.50;1.90;;;;;;;7.42;100.00;101281.27;105704;1258;63606;-49
2023/05/04 02:46:58;;;;;;;7.50;3.00;;;;;;;7.37;100.00;101279.34;105855;1257;63050;-49
2023/05/04 02:49:25;;;;;;;11.00;2.50;;;;;;;7.31;100.00;101282.04;105668;1259;74594;-49
2023/05/04 02:51:52;;;;;;;6.20;2.70;;;;;;;7.25;100.00;101283.02;105865;1253;67263;-48
2023/05/04 02:54:19;;;;;;;11.90;2.60;;;;;;;7.19;100.00;101289.66;105675;1254;74521;-49
2023/05/04 02:56:46;;;;;;;2.90;1.90;;;;;;;7.14;100.00;101302.31;105669;1258;63209;-49
2023/05/04 02:59:13;;;;;;;6.70;2.20;;;;;;;7.12;100.00;101322.38;105845;1257;63318;-49
2023/05/04 03:01:40;;;;;;;6.20;2.30;;;;;;;7.14;100.00;101337.85;105715;1258;74868;-49
2023/05/04 03:04:07;;;;;;;4.10;2.40;;;;;;;7.22;100.00;101344.45;105668;1258;67101;-49
2023/05/04 03:06:35;;;;;;;4.90;2.30;;;;;;;7.30;100.00;101332.50;105708;1258;74272;-48
2023/05/04 03:09:03;;;;;;;5.90;2.40;;;;;;;7.35;100.00;101323.97;105713;1253;61188;-49
2023/05/04 03:11:30;;;;;;;7.30;2.60;;;;;;;7.37;100.00;101316.27;105699;1252;61895;-49
2023/05/04 03:13:57;;;;;;;9.00;2.40;;;;;;;7.36;100.00;101308.87;105650;1252;74838;-49
2023/05/04 03:16:24;;;;;;;5.60;2.80;;;;;;;7.36;100.00;101305.26;105872;1253;67123;-49
2023/05/04 03:18:51;;;;;;;6.70;2.50;;;;;;;7.42;100.00;101302.55;105853;1254;74185;-49
2023/05/04 03:21:18;;;;;;;3.50;2.40;;;;;;;7.55;100.00;101298.20;105677;1253;61657;-52
2023/05/04 03:23:46;;;;;;;8.10;3.00;;;;;;;7.60;100.00;101292.39;105749;1254;62485;-50
2023/05/04 03:26:14;;;;;;;7.90;2.10;;;;;;;7.61;100.00;101285.20;105699;1257;75190;-49
2023/05/04 03:28:41;;;;;;;1.80;1.70;;;;;;;7.66;100.00;101280.23;105842;1253;65959;-51
2023/05/04 03:31:08;;;;;;;5.80;2.50;;;;;;;7.69;100.00;101278.87;105849;1252;72913;-52
2023/05/04 03:33:35;;;;;;;5.30;2.30;;;;;;;7.73;100.00;101275.48;105837;1253;61296;-50
2023/05/04 03:36:03;;;;;;;7.80;2.30;;;;;;;7.80;100.00;101269.85;105675;1253;62984;-50
2023/05/04 03:38:30;;;;;;;2.70;2.50;;;;;;;7.93;100.00;101264.75;105718;1258;75326;-48
2023/05/04 03:40:58;;;;;;;2.90;2.50;;;;;;;8.08;100.00;101259.86;105863;1253;67118;-50
2023/05/04 03:43:25;;;;;;;6.90;2.20;;;;;;;8.29;100.00;101261.67;105816;1253;74092;-50
2023/05/04 03:45:52;;;;;;;6.40;2.40;;;;;;;8.55;100.00;101256.61;105668;1253;63215;-51
2023/05/04 03:48:19;;;;;;;5.70;2.50;;;;;;;8.81;100.00;101259.61;105836;1253;62711;-50
2023/05/04 03:50:47;;;;;;;4.40;2.20;;;;;;;9.08;100.00;101256.88;105744;1257;75393;-50
2023/05/04 03:53:14;;;;;;;3.20;1.80;;;;;;;9.34;100.00;101261.36;105668;1254;66434;-50
2023/05/04 03:55:41;;;;;;;18.10;2.40;;;;;;;9.63;100.00;101268.75;105860;1254;74976;-52
2023/05/04 03:58:09;;;;;;;13.10;2.60;;;;;;;9.97;100.00;101274.88;105876;1253;62811;-50
2023/05/04 04:00:36;;;;;;;8.80;2.20;;;;;;;10.30;100.00;101292.54;105700;1257;61214;-50
2023/05/04 04:03:08;;;;;;;3.90;2.30;;;;;;;10.64;100.00;101317.09;105861;1257;76891;-49
2023/05/04 04:05:35;;;;;;;9.40;2.10;;;;;;;10.97;100.00;101336.94;105698;1253;65719;-50
2023/05/04 04:08:02;;;;;;;3.00;2.00;;;;;;;11.33;100.00;101365.91;105672;1258;74910;-49
2023/05/04 04:10:30;;;;;;;3.20;1.90;;;;;;;11.67;100.00;101396.59;105824;1257;61837;-51
2023/05/04 04:12:57;;;;;;;9.00;2.20;;;;;;;11.99;100.00;101427.81;105732;1254;61376;-49
2023/05/04 04:15:24;;;;;;;10.10;2.30;;;;;;;12.29;100.00;101464.08;105741;1253;75359;-49
2023/05/04 04:17:51;;;;;;;5.80;2.30;;;;;;;12.58;100.00;101492.70;105682;1253;67529;-50
2023/05/04 04:20:18;;;;;;;2.50;2.00;;;;;;;12.92;100.00;101511.73;105758;1253;75089;-50
2023/05/04 04:22:45;;;;;;;4.10;2.00;;;;;;;13.20;100.00;101536.01;105650;1253;62030;-49
2023/05/04 04:25:12;;;;;;;5.40;2.20;;;;;;;13.32;100.00;101563.42;105835;1257;62485;-50
2023/05/04 04:27:40;;;;;;;8.90;2.00;;;;;;;13.43;100.00;101576.84;105675;1257;74638;-49
2023/05/04 04:30:08;;;;;;;5.40;2.10;;;;;;;13.56;96.97;101591.44;105820;1253;66646;-50
2023/05/04 04:32:36;;;;;;;5.80;1.80;;;;;;;13.71;89.84;101602.52;105848;1253;74530;-50
2023/05/04 04:35:04;;;;;;;8.60;1.80;;;;;;;13.87;81.89;101608.36;105917;1254;61905;-51
2023/05/04 04:37:30;;;;;;;6.20;2.00;;;;;;;13.97;77.46;101614.47;105748;1253;62772;-51
2023/05/04 04:39:57;;;;;;;10.60;2.00;;;;;;;14.12;75.24;101615.66;105831;1257;76301;-50
2023/05/04 04:42:25;;;;;;;5.40;2.00;;;;;;;14.21;70.90;101608.73;105682;1253;66169;-50
2023/05/04 04:44:52;;;;;;;4.60;1.90;;;;;;;14.33;69.39;101621.07;105828;1253;74326;-49
2023/05/04 04:47:19;;;;;;;7.10;2.20;;;;;;;14.54;67.60;101614.99;105845;1253;62699;-53
2023/05/04 04:49:46;;;;;;;9.50;1.90;;;;;;;14.74;66.10;101611.39;105885;1253;62345;-53
2023/05/04 04:52:13;;;;;;;12.70;2.40;;;;;;;14.88;63.88;101596.70;105526;1257;75649;-51
2023/05/04 04:54:41;;;;;;;4.70;2.00;;;;;;;14.86;62.56;101597.11;105686;1253;66402;-53
2023/05/04 04:57:09;;;;;;;3.30;2.10;;;;;;;14.85;61.11;101585.14;105826;1257;74982;-54
2023/05/04 04:59:36;;;;;;;4.10;1.90;;;;;;;14.89;61.32;101616.34;105697;1253;62426;-50
2023/05/04 05:02:04;;;;;;;5.60;2.70;;;;;;;15.01;60.58;101596.64;105717;1254;62396;-50
2023/05/04 05:04:31;;;;;;;8.60;2.40;;;;;;;15.10;58.22;101537.73;105835;1256;76372;-51
2023/05/04 05:06:58;;;;;;;6.10;2.10;;;;;;;15.05;57.11;101537.13;105701;1257;66230;-52
2023/05/04 05:09:25;;;;;;;6.60;2.60;;;;;;;14.97;56.60;101540.42;105875;1253;75458;-50
2023/05/04 05:11:52;;;;;;;11.10;2.40;;;;;;;14.93;56.78;101573.36;105700;1257;61460;-51
2023/05/04 05:14:19;;;;;;;7.00;2.30;;;;;;;14.94;56.16;101557.16;105705;1259;62086;-50
2023/05/04 05:16:46;;;;;;;5.80;2.40;;;;;;;14.98;56.01;101565.96;105856;1253;75381;-52
2023/05/04 05:19:14;;;;;;;5.40;2.50;;;;;;;15.05;55.82;101561.64;105825;1253;65933;-51
2023/05/04 05:21:41;;;;;;;10.20;2.50;;;;;;;15.23;55.90;101566.52;105747;1253;74408;-51
2023/05/04 05:24:08;;;;;;;3.70;2.50;;;;;;;15.40;54.88;101527.73;105806;1253;61472;-51
2023/05/04 05:26:35;;;;;;;14.30;2.50;;;;;;;15.46;54.29;101518.55;105699;1257;62762;-51
2023/05/04 05:29:02;;;;;;;13.30;2.50;;;;;;;15.48;54.28;101540.24;105668;1257;76517;-51
2023/05/04 05:31:29;;;;;;;6.40;2.80;;;;;;;15.60;54.19;101543.30;105753;1253;65646;-51
2023/05/04 05:33:56;;;;;;;8.00;2.90;;;;;;;15.67;52.93;101465.71;105812;1253;73133;-51
2023/05/04 05:36:23;;;;;;;13.60;2.60;;;;;;;15.63;52.47;101465.63;105711;1253;62226;-50
2023/05/04 05:38:51;;;;;;;5.20;3.30;;;;;;;15.58;51.69;101437.58;105717;1253;62655;-50
2023/05/04 05:41:18;;;;;;;5.50;2.20;;;;;;;15.56;51.11;101416.75;105856;1257;74945;-50
2023/05/04 05:43:45;;;;;;;7.70;2.20;;;;;;;15.61;51.17;101433.66;105660;1253;67066;-50
2023/05/04 05:46:12;;;;;;;4.30;2.10;;;;;;;15.57;50.62;101401.95;105667;1253;75268;-51
2023/05/04 05:48:41;;;;;;;5.40;2.40;;;;;;;15.55;50.92;101452.09;105861;1254;61985;-51
2023/05/04 05:51:08;;;;;;;4.80;2.20;;;;;;;15.54;50.68;101435.76;105732;1257;62378;-50
2023/05/04 05:53:35;;;;;;;9.60;2.20;;;;;;;15.51;50.70;101441.23;105699;1257;76439;-50
2023/05/04 05:56:02;;;;;;;6.10;2.10;;;;;;;15.46;51.36;101515.94;105684;1253;67032;-53
2023/05/04 05:58:30;;;;;;;9.30;2.60;;;;;;;15.46;51.25;101497.33;105688;1253;74249;-51
2023/05/04 06:00:57;;;;;;;8.00;2.40;;;;;;;15.41;51.57;101530.67;105845;1258;62105;-51
2023/05/04 06:03:24;;;;;;;5.30;2.10;;;;;;;15.42;51.74;101548.55;105671;1254;61976;-51
2023/05/04 06:05:51;;;;;;;4.60;2.50;;;;;;;15.54;51.59;101539.58;105785;1253;75282;-52
2023/05/04 06:08:18;;;;;;;5.80;2.70;;;;;;;15.68;51.38;101509.54;105688;1253;67142;-51
2023/05/04 06:10:45;;;;;;;10.20;3.30;;;;;;;15.75;51.47;101510.59;105714;1258;75350;-50
2023/05/04 06:13:12;;;;;;;11.30;3.30;;;;;;;15.81;50.42;101441.20;105683;1253;63277;-50
2023/05/04 06:15:39;;;;;;;9.00;2.90;;;;;;;15.78;51.31;101518.69;105762;1257;60847;-51
2023/05/04 06:18:06;;;;;;;6.20;3.10;;;;;;;15.82;50.74;101494.61;105708;1257;76286;-52
2023/05/04 06:20:33;;;;;;;10.50;3.00;;;;;;;15.79;51.02;101519.38;105724;1259;65915;-51
2023/05/04 06:23:00;;;;;;;7.40;3.70;;;;;;;15.78;50.63;101490.33;105671;1253;74900;-52
2023/05/04 06:25:27;;;;;;;15.60;4.20;;;;;;;15.92;51.27;101546.08;105641;1253;60916;-50
2023/05/04 06:27:54;;;;;;;7.70;3.30;;;;;;;16.09;50.88;101501.30;105861;1253;61975;-52
2023/05/04 06:30:23;;;;;;;11.00;3.40;;;;;;;16.33;50.86;101500.51;105757;1253;75225;-51
2023/05/04 06:32:50;;;;;;;10.00;3.60;;;;;;;16.53;50.51;101459.75;105767;1253;67039;-50
2023/05/04 06:35:17;;;;;;;5.30;2.40;;;;;;;16.73;50.07;101449.26;105689;1253;74067;-51
2023/05/04 06:37:45;;;;;;;4.30;2.80;;;;;;;16.88;48.76;101338.48;105711;1253;63378;-51
2023/05/04 06:40:12;;;;;;;5.10;2.80;;;;;;;16.88;49.27;101389.76;105687;1253;60950;-51
2023/05/04 06:42:40;;;;;;;5.00;2.50;;;;;;;16.98;48.63;101348.14;105723;1258;75259;-53
2023/05/04 06:45:08;;;;;;;3.30;2.50;;;;;;;17.06;49.17;101380.68;105878;1257;64879;-53
2023/05/04 06:47:36;;;;;;;2.70;2.10;;;;;;;17.23;49.08;101401.25;105835;1253;75176;-51
2023/05/04 06:50:08;;;;;;;4.00;2.10;;;;;;;17.35;48.60;101349.79;105703;1257;62819;-54
2023/05/04 06:52:39;;;;;;;6.40;2.90;;;;;;;17.46;48.52;101351.36;105739;1257;61459;-55
2023/05/04 06:55:07;;;;;;;2.90;1.90;;;;;;;17.60;47.75;101285.45;105707;1257;76049;-51
2023/05/04 06:57:34;;;;;;;4.90;1.90;;;;;;;17.68;47.53;101276.45;105717;1253;67215;-50
2023/05/04 07:00:03;;;;;;;2.60;1.80;;;;;;;17.74;48.48;101376.60;105675;1253;75323;-51
2023/05/04 07:02:30;;;;;;;3.00;2.10;;;;;;;17.92;48.40;101350.13;105828;1253;62836;-51
2023/05/04 07:04:57;;;;;;;4.60;1.80;;;;;;;18.16;48.46;101359.80;105701;1257;61756;-52
2023/05/04 07:07:24;;;;;;;5.40;2.00;;;;;;;18.35;47.12;101243.46;105717;1257;75232;-52
2023/05/04 07:09:51;;;;;;;4.90;1.60;;;;;;;18.38;46.96;101227.80;105713;1253;67086;-50
2023/05/04 07:12:19;;;;;;;5.60;1.30;;;;;;;18.54;46.69;101223.52;105696;1253;73603;-52
2023/05/04 07:14:46;;;;;;;9.70;1.70;;;;;;;18.71;46.38;101201.16;105747;1253;62750;-52
2023/05/04 07:17:13;;;;;;;6.80;1.40;;;;;;;18.83;46.73;101242.46;105708;1258;61766;-51
2023/05/04 07:19:41;;;;;;;3.20;1.60;;;;;;;18.99;45.75;101146.88;105866;1253;75635;-52
2023/05/04 07:22:08;;;;;;;4.50;1.40;;;;;;;19.08;45.69;101159.26;105739;1253;67114;-50
2023/05/04 07:24:35;;;;;;;4.90;1.30;;;;;;;19.25;45.75;101160.48;105746;1254;73481;-51
2023/05/04 07:27:02;;;;;;;4.20;1.30;;;;;;;19.30;45.49;101145.20;105755;1253;61818;-51
2023/05/04 07:29:29;;;;;;;3.10;1.20;;;;;;;19.40;44.43;101062.01;105822;1253;62032;-52
2023/05/04 07:31:57;;;;;;;2.00;1.10;;;;;;;19.39;44.37;101065.50;105795;1252;76435;-52
2023/05/04 07:34:24;;;;;;;4.40;1.50;;;;;;;19.45;44.57;101091.53;105734;1253;66154;-51
2023/05/04 07:37:04;;;;;;;9.90;1.70;;;;;;;19.60;44.74;101106.58;105850;1253;74118;-51
2023/05/04 07:39:33;;;;;;;4.10;1.80;;;;;;;19.66;44.87;101130.63;105849;1253;63292;-54
2023/05/04 07:42:04;;;;;;;2.70;1.20;;;;;;;19.69;44.12;101048.90;105761;1253;62534;-55
2023/05/04 07:44:31;;;;;;;2.20;1.20;;;;;;;19.79;44.28;101081.00;105575;1253;76216;-53
2023/05/04 07:46:59;;;;;;;9.70;1.40;;;;;;;19.95;43.63;101017.79;105769;1254;66171;-51
2023/05/04 07:49:26;;;;;;;8.60;1.50;;;;;;;20.00;43.33;100981.64;105901;1258;73964;-52
2023/05/04 07:51:53;;;;;;;9.90;1.30;;;;;;;20.02;44.47;101113.58;105776;1253;62696;-51
2023/05/04 07:54:21;;;;;;;6.50;1.70;;;;;;;20.23;43.94;101074.21;105885;1257;62089;-51
2023/05/04 07:56:49;;;;;;;5.60;1.50;;;;;;;20.39;43.41;101025.44;105763;1253;74984;-51
2023/05/04 07:59:17;;;;;;;3.40;1.40;;;;;;;20.59;42.89;100967.11;105787;1253;66845;-52
2023/05/04 08:01:45;;;;;;;5.10;2.40;;;;;;;20.81;41.84;100844.26;105915;1253;75010;-53
2023/05/04 08:04:12;;;;;;;5.70;1.60;;;;;;;20.92;41.85;100852.23;105771;1253;62921;-52
2023/05/04 08:06:40;;;;;;;2.30;1.30;;;;;;;20.92;40.93;100785.09;105878;1256;61902;-52
2023/05/04 08:09:07;;;;;;;8.20;1.40;;;;;;;20.86;41.14;100802.08;105779;1257;76527;-52
2023/05/04 08:11:36;;;;;;;6.50;1.80;;;;;;;20.77;40.99;100805.72;105790;1254;65948;-51
2023/05/04 08:14:04;;;;;;;4.50;1.40;;;;;;;20.73;41.54;100889.05;105901;1253;74117;-52
2023/05/04 08:16:31;;;;;;;2.90;1.40;;;;;;;20.82;40.78;100809.83;105817;1253;63720;-51
2023/05/04 08:18:58;;;;;;;3.00;1.60;;;;;;;20.75;40.21;100736.90;105740;1253;62495;-51
2023/05/04 08:21:26;;;;;;;5.90;1.50;;;;;;;20.49;41.75;100926.60;105756;1257;74464;-53
2023/05/04 08:23:53;;;;;;;8.20;1.30;;;;;;;20.43;41.58;100913.41;105883;1253;67136;-53
2023/05/04 08:26:20;;;;;;;6.30;1.40;;;;;;;20.47;42.23;100999.92;105817;1254;73956;-52
2023/05/04 08:28:47;;;;;;;11.50;1.40;;;;;;;20.55;41.47;100929.43;105787;1253;63201;-52
2023/05/04 08:31:17;;;;;;;8.30;1.70;;;;;;;20.53;41.04;100876.56;105842;1254;62707;-52
2023/05/04 08:33:45;;;;;;;3.70;1.70;;;;;;;20.49;40.98;100889.42;105923;1252;75205;-51
2023/05/04 08:36:12;;;;;;;3.60;1.10;;;;;;;20.32;41.43;100943.96;105786;1253;66332;-51
2023/05/04 08:38:39;;;;;;;7.60;1.10;;;;;;;20.23;41.67;100968.92;105855;1254;75000;-51
2023/05/04 08:41:07;;;;;;;8.30;1.90;;;;;;;20.14;41.66;100961.83;105795;1254;61888;-52
2023/05/04 08:43:35;;;;;;;2.70;1.10;;;;;;;20.15;41.42;100940.62;105899;1259;61801;-51
2023/05/04 08:46:03;;;;;;;3.40;1.10;;;;;;;20.13;41.73;100974.84;105773;1252;75586;-51
2023/05/04 08:48:32;;;;;;;7.70;1.30;;;;;;;20.20;41.72;100999.40;105893;1257;66662;-52
2023/05/04 08:50:59;;;;;;;14.50;1.40;;;;;;;20.26;41.18;100917.63;105787;1254;73394;-52
2023/05/04 08:53:26;;;;;;;4.00;1.60;;;;;;;20.21;42.49;101043.68;105868;1253;63239;-51
2023/05/04 08:55:54;;;;;;;6.20;1.20;;;;;;;20.35;42.22;101037.70;105798;1253;61028;-51
2023/05/04 08:58:21;;;;;;;7.20;1.40;;;;;;;20.63;43.03;101118.54;109501;1251;76563;-53
2023/05/04 09:00:48;;;;;;;4.80;1.50;;;;;;;20.91;41.58;100973.30;109599;1251;65713;-54
2023/05/04 09:03:15;;;;;;;7.60;2.10;;;;;;;21.09;41.33;100935.32;109335;1251;74454;-53
2023/05/04 09:05:43;;;;;;;4.00;1.90;;;;;;;21.23;40.23;100802.81;109352;1251;61509;-53
2023/05/04 09:08:10;;;;;;;4.50;2.20;;;;;;;21.27;40.80;100861.86;109448;1252;61343;-53
2023/05/04 09:10:37;;;;;;;8.20;2.70;;;;;;;21.34;40.06;100796.00;109552;1253;76037;-52
2023/05/04 09:13:04;;;;;;;8.70;2.40;;;;;;;21.21;40.95;100895.02;109554;1251;66739;-53
2023/05/04 12:17:40;;;;;;;2.40;1.00;;;;;;;24.46;32.83;99987.80;103724;1281;613521;-51
2023/05/04 12:20:09;;;;;;;1.90;1.00;;;;;;;24.52;32.94;99963.65;105001;1264;110178;-51
2023/05/04 12:22:36;;;;;;;5.80;1.20;;;;;;;24.73;32.83;99952.90;105242;1266;61556;-51
2023/05/04 12:25:05;;;;;;;3.20;1.10;;;;;;;25.11;32.24;99851.48;105247;1266;74340;-52
2023/05/04 12:27:33;;;;;;;1.10;1.00;;;;;;;25.49;32.11;99845.33;105242;1266;66822;-52
2023/05/04 12:30:00;;;;;;;8.40;1.10;;;;;;;25.53;31.28;99735.80;105199;1266;74973;-51
2023/05/04 12:32:27;;;;;;;4.80;1.00;;;;;;;25.34;31.07;99724.14;105220;1263;62271;-51
2023/05/04 12:34:55;;;;;;;2.50;1.20;;;;;;;24.99;30.63;99668.14;105228;1262;61484;-52
2023/05/04 12:37:22;;;;;;;3.50;1.10;;;;;;;24.52;31.02;99704.49;105230;1266;74652;-51
2023/05/04 12:39:50;;;;;;;7.70;1.00;;;;;;;24.26;32.38;99839.42;105211;1262;66206;-51
2023/05/04 12:42:17;;;;;;;15.60;1.40;;;;;;;24.09;33.29;99951.20;105195;1264;75158;-52
2023/05/04 12:44:45;;;;;;;3.90;0.90;;;;;;;24.07;33.41;99976.94;105246;1264;62186;-51
2023/05/04 12:47:13;;;;;;;4.50;0.80;;;;;;;24.00;33.48;99971.49;105959;1251;62308;-52
2023/05/04 12:49:40;;;;;;;5.40;0.90;;;;;;;23.91;32.75;99933.13;106014;1254;75416;-51
2023/05/04 12:52:07;;;;;;;3.10;0.80;;;;;;;23.85;31.95;99868.08;105941;1251;66116;-52
2023/05/04 12:54:34;;;;;;;3.00;1.20;;;;;;;23.82;33.60;99982.25;105978;1251;74283;-51
2023/05/04 12:57:02;;;;;;;0.90;0.80;;;;;;;23.70;34.12;100057.02;105944;1251;62636;-52
2023/05/04 12:59:29;;;;;;;6.60;1.00;;;;;;;23.85;34.03;100066.27;105998;1251;63030;-52
2023/05/04 13:01:56;;;;;;;9.10;1.10;;;;;;;23.91;34.49;100093.26;105970;1257;75649;-52
2023/05/04 13:04:23;;;;;;;3.60;1.30;;;;;;;23.99;34.74;100144.56;106025;1251;66014;-53
2023/05/04 13:06:50;;;;;;;11.60;0.80;;;;;;;24.29;34.63;100126.70;105834;1257;75174;-52
2023/05/04 13:09:19;;;;;;;13.50;1.20;;;;;;;24.63;33.49;100028.13;105914;1257;63186;-52
2023/05/04 13:11:47;;;;;;;10.70;1.30;;;;;;;25.00;33.56;100022.45;105714;1254;63223;-52
2023/05/04 13:14:14;;;;;;;7.50;1.10;;;;;;;25.25;32.58;99914.04;105986;1254;74790;-53
2023/05/04 13:16:41;;;;;;;3.20;1.10;;;;;;;25.35;33.32;99970.28;105852;1254;66612;-53
2023/05/04 13:19:08;;;;;;;1.90;1.00;;;;;;;25.53;32.19;99862.28;105894;1257;75759;-53
2023/05/04 13:21:35;;;;;;;3.20;1.00;;;;;;;25.68;31.43;99779.86;105868;1255;62624;-53
2023/05/04 13:24:02;;;;;;;4.30;0.80;;;;;;;25.81;31.68;99778.80;105832;1257;63018;-52
2023/05/04 13:26:30;;;;;;;7.40;1.00;;;;;;;26.14;31.20;99708.98;105757;1257;75221;-52
2023/05/04 13:28:57;;;;;;;4.00;1.00;;;;;;;26.29;30.02;99542.00;105899;1257;66836;-53
2023/05/04 13:31:24;;;;;;;3.10;1.00;;;;;;;26.18;30.24;99539.77;105808;1257;75039;-51
2023/05/04 13:33:52;;;;;;;2.50;1.00;;;;;;;26.25;29.60;99479.48;105900;1253;61797;-51
2023/05/04 13:36:19;;;;;;;3.00;0.80;;;;;;;26.09;29.39;99445.75;105860;1252;61266;-51
2023/05/04 13:38:46;;;;;;;4.40;0.80;;;;;;;25.98;29.60;99435.81;105854;1257;75392;-52
2023/05/04 13:41:13;;;;;;;4.60;1.00;;;;;;;25.98;29.30;99438.81;105927;1253;65859;-52
2023/05/04 13:43:41;;;;;;;1.80;0.60;;;;;;;26.20;29.45;99435.58;105770;1253;74708;-52
2023/05/04 13:46:08;;;;;;;13.90;1.20;;;;;;;26.51;29.63;99445.80;105823;1254;62812;-52
2023/05/04 13:48:35;;;;;;;6.90;1.10;;;;;;;26.60;28.40;99317.02;105896;1257;61711;-51
2023/05/04 13:51:03;;;;;;;6.30;1.60;;;;;;;26.53;28.66;99331.85;105812;1257;75477;-52
2023/05/04 13:53:30;;;;;;;26.30;1.90;;;;;;;26.72;29.36;99385.27;105943;1257;67183;-52
2023/05/04 13:55:57;;;;;;;3.90;1.00;;;;;;;27.09;28.88;99358.11;105865;1257;75115;-52
2023/05/04 13:58:24;;;;;;;4.10;1.00;;;;;;;27.17;27.83;99235.80;105802;1257;62556;-53
2023/05/04 14:00:54;;;;;;;5.00;1.00;;;;;;;27.19;28.46;99277.30;105870;1254;62646;-53
2023/05/04 14:03:22;;;;;;;3.90;0.60;;;;;;;27.38;27.78;99189.64;105718;1258;74719;-56
2023/05/04 14:05:50;;;;;;;8.10;0.90;;;;;;;27.53;27.49;99156.02;105866;1254;66407;-55
2023/05/04 14:08:17;;;;;;;5.80;1.10;;;;;;;27.61;28.69;99254.55;105919;1253;74191;-53
2023/05/04 14:10:44;;;;;;;6.70;1.00;;;;;;;27.69;27.90;99189.31;105881;1257;63070;-54
2023/05/04 14:13:11;;;;;;;3.80;0.80;;;;;;;27.64;28.55;99266.74;105813;1254;62758;-53
2023/05/04 14:15:39;;;;;;;2.60;0.70;;;;;;;27.47;28.28;99227.16;105777;1254;74455;-55
2023/05/04 14:18:06;;;;;;;3.40;0.70;;;;;;;27.31;28.55;99281.68;105785;1255;66071;-56
2023/05/04 14:20:34;;;;;;;1.60;0.70;;;;;;;27.19;27.82;99212.77;105712;1254;74799;-52